Time;durP1;ratioP1;P1;durP2;ratioP2;P2;SDS_P1;SDS_P2;PMS_P1;PMS_P2;Temp;Humidity;BMP_temperature;BMP_pressure;BME280_temperature;BME280_humidity;BME280_pressure;Samples;Min_cycle;Max_cycle;Signal;HPM_P1;HPM_P2
2023/03/18 00:01:45;;;;;;;7.30;2.20;;;11.40;99.90;;;;;;4959180;28;20684;-82
2023/03/18 00:04:11;;;;;;;3.28;1.88;;;11.40;99.90;;;;;;4957315;28;20040;-82
2023/03/18 00:06:37;;;;;;;3.55;1.52;;;11.40;99.90;;;;;;4974146;28;20030;-81
2023/03/18 00:09:03;;;;;;;6.60;1.85;;;11.30;99.90;;;;;;4945299;28;20117;-82
2023/03/18 00:11:32;;;;;;;6.25;2.20;;;11.30;99.90;;;;;;4959582;28;20114;-82
2023/03/18 00:13:58;;;;;;;5.05;2.05;;;11.30;99.90;;;;;;4958477;28;20033;-81
2023/03/18 00:16:24;;;;;;;4.97;1.95;;;11.30;99.90;;;;;;4961865;28;21025;-80
2023/03/18 00:18:49;;;;;;;9.30;2.85;;;11.30;99.90;;;;;;4952726;28;20038;-82
2023/03/18 00:21:15;;;;;;;7.72;2.20;;;11.30;99.90;;;;;;4958514;28;20030;-83
2023/03/18 00:23:41;;;;;;;4.28;1.77;;;11.20;99.90;;;;;;4945446;28;20026;-83
2023/03/18 00:26:07;;;;;;;7.22;2.38;;;11.20;99.90;;;;;;4964271;28;20371;-82
2023/03/18 00:28:33;;;;;;;7.10;2.30;;;11.20;99.90;;;;;;4959533;28;20041;-82
2023/03/18 00:31:07;;;;;;;8.63;3.72;;;11.30;99.90;;;;;;4954231;28;20038;-84
2023/03/18 00:33:33;;;;;;;8.95;2.15;;;11.20;99.90;;;;;;4953099;28;20042;-84
2023/03/18 00:35:59;;;;;;;4.82;1.98;;;11.20;99.90;;;;;;4959801;28;20510;-83
2023/03/18 00:38:25;;;;;;;10.80;4.20;;;11.30;99.90;;;;;;4937419;28;20030;-84
2023/03/18 00:41:35;;;;;;;8.85;1.90;;;11.20;99.90;;;;;;4966366;28;20035;-82
2023/03/18 00:43:53;;;;;;;3.85;2.25;;;11.20;99.90;;;;;;4968391;28;20038;-81
2023/03/18 00:46:26;;;;;;;9.48;2.10;;;11.20;99.90;;;;;;4966266;28;20596;-83
2023/03/18 00:48:53;;;;;;;6.95;3.03;;;11.30;99.90;;;;;;4973051;28;20064;-83
2023/03/18 00:51:20;;;;;;;4.13;2.15;;;11.30;99.90;;;;;;4960373;28;20806;-82
2023/03/18 00:53:52;;;;;;;4.55;2.10;;;11.30;99.90;;;;;;4941549;28;20105;-81
2023/03/18 00:56:20;;;;;;;3.50;2.08;;;11.20;99.90;;;;;;4964305;28;20546;-82
2023/03/18 00:58:46;;;;;;;4.55;2.13;;;11.30;99.90;;;;;;4970821;28;20030;-82
2023/03/18 01:01:12;;;;;;;11.95;2.28;;;11.20;99.90;;;;;;4953840;28;20029;-82
2023/03/18 01:03:41;;;;;;;4.93;1.77;;;11.30;99.90;;;;;;4950478;28;20026;-83
2023/03/18 01:06:07;;;;;;;6.03;2.17;;;11.30;99.90;;;;;;4957982;28;20025;-81
2023/03/18 01:08:32;;;;;;;7.53;2.65;;;11.20;99.90;;;;;;4971193;28;20040;-84
2023/03/18 01:10:58;;;;;;;3.50;2.00;;;11.10;99.90;;;;;;4968934;28;20034;-82
2023/03/18 01:13:24;;;;;;;3.78;2.05;;;11.20;99.90;;;;;;4944538;28;21881;-83
2023/03/18 01:15:50;;;;;;;4.97;2.10;;;11.20;99.90;;;;;;4939860;28;20046;-83
2023/03/18 01:18:16;;;;;;;6.65;2.55;;;11.20;99.90;;;;;;4980153;28;20025;-83
2023/03/18 01:20:43;;;;;;;4.50;2.15;;;11.10;99.90;;;;;;4946862;28;20026;-83
2023/03/18 01:23:09;;;;;;;6.55;2.25;;;11.10;99.90;;;;;;4959291;28;20030;-83
2023/03/18 01:25:35;;;;;;;6.30;2.53;;;11.10;99.90;;;;;;4970112;28;20030;-83
2023/03/18 01:28:00;;;;;;;5.25;2.38;;;11.00;99.90;;;;;;4958289;28;20037;-83
2023/03/18 01:30:27;;;;;;;4.82;2.45;;;11.10;99.90;;;;;;4959011;28;20850;-83
2023/03/18 01:32:53;;;;;;;5.28;2.15;;;11.10;99.90;;;;;;4967398;28;20125;-83
2023/03/18 01:35:19;;;;;;;5.00;2.42;;;11.00;99.90;;;;;;4961713;28;20121;-83
2023/03/18 01:37:47;;;;;;;8.43;2.95;;;11.00;99.90;;;;;;4952265;28;20762;-83
2023/03/18 01:40:13;;;;;;;4.72;2.08;;;11.00;99.90;;;;;;4961768;28;20025;-84
2023/03/18 01:42:39;;;;;;;4.38;1.55;;;11.00;99.90;;;;;;4961180;28;20471;-83
2023/03/18 01:45:25;;;;;;;5.13;2.75;;;11.10;99.90;;;;;;4968306;28;20053;-83
2023/03/18 01:47:51;;;;;;;7.53;2.17;;;11.10;99.90;;;;;;4945658;28;20445;-84
2023/03/18 01:50:21;;;;;;;6.40;1.95;;;11.10;99.90;;;;;;4966019;28;20117;-83
2023/03/18 01:52:48;;;;;;;6.05;2.60;;;11.10;99.90;;;;;;4971627;28;20514;-83
2023/03/18 01:55:16;;;;;;;3.90;2.00;;;11.10;99.90;;;;;;4959454;28;20036;-82
2023/03/18 01:57:42;;;;;;;5.53;2.40;;;11.10;99.90;;;;;;4953400;28;20023;-82
2023/03/18 02:00:09;;;;;;;6.43;2.17;;;11.10;99.90;;;;;;4970779;28;20479;-82
2023/03/18 02:02:37;;;;;;;9.35;2.78;;;11.10;99.90;;;;;;4969149;28;20391;-82
2023/03/18 02:05:08;;;;;;;5.78;2.40;;;11.00;99.90;;;;;;4964400;28;20026;-83
2023/03/18 02:07:34;;;;;;;7.05;2.38;;;11.10;99.90;;;;;;4976582;28;20057;-83
2023/03/18 02:10:07;;;;;;;5.18;2.30;;;11.10;99.90;;;;;;4951391;28;20183;-83
2023/03/18 02:12:37;;;;;;;7.18;3.40;;;11.10;99.90;;;;;;4960519;28;20027;-83
2023/03/18 02:15:10;;;;;;;6.30;2.45;;;11.10;99.90;;;;;;4971064;28;20041;-83
2023/03/18 02:17:41;;;;;;;5.50;2.40;;;11.20;99.90;;;;;;4953930;28;20060;-83
2023/03/18 02:20:27;;;;;;;7.50;2.83;;;11.10;99.90;;;;;;4956963;28;20570;-83
2023/03/18 02:23:04;;;;;;;4.90;2.67;;;11.20;99.90;;;;;;4991604;28;20033;-83
2023/03/18 02:25:56;;;;;;;9.48;2.53;;;11.20;99.90;;;;;;4987488;28;20120;-85
2023/03/18 02:28:26;;;;;;;7.43;2.28;;;11.20;99.90;;;;;;4979762;28;20492;-84
2023/03/18 02:30:53;;;;;;;6.82;2.60;;;11.10;99.90;;;;;;4961701;28;20038;-84
2023/03/18 02:33:20;;;;;;;6.78;2.35;;;11.30;99.90;;;;;;4940136;28;20042;-83
2023/03/18 02:35:46;;;;;;;6.63;2.20;;;11.30;99.90;;;;;;4957949;28;20041;-82
2023/03/18 02:38:12;;;;;;;6.57;2.42;;;11.30;99.90;;;;;;4978760;28;20029;-83
2023/03/18 02:40:40;;;;;;;7.50;2.80;;;11.20;99.90;;;;;;4953143;28;20086;-83
2023/03/18 02:43:24;;;;;;;4.38;2.35;;;11.20;99.90;;;;;;4946583;28;20101;-83
2023/03/18 02:46:10;;;;;;;6.15;2.25;;;11.20;99.90;;;;;;5000571;28;20030;-83
2023/03/18 02:48:37;;;;;;;7.40;2.50;;;11.10;99.90;;;;;;4989105;28;20035;-81
2023/03/18 02:51:04;;;;;;;6.55;2.30;;;11.10;99.90;;;;;;4970460;28;20591;-82
2023/03/18 02:53:30;;;;;;;5.40;2.13;;;11.10;99.90;;;;;;4959750;28;20042;-83
2023/03/18 02:55:58;;;;;;;5.25;2.33;;;11.00;99.90;;;;;;4945567;28;20372;-83
2023/03/18 02:58:24;;;;;;;8.40;2.20;;;10.90;99.90;;;;;;4969377;28;20076;-83
2023/03/18 03:00:49;;;;;;;3.95;1.83;;;10.80;99.90;;;;;;4962714;28;20444;-83
2023/03/18 03:03:15;;;;;;;3.60;2.00;;;10.90;99.90;;;;;;4962483;28;20026;-83
2023/03/18 03:05:40;;;;;;;10.27;2.70;;;11.00;99.90;;;;;;4949271;28;20106;-83
2023/03/18 03:08:06;;;;;;;7.40;2.65;;;10.90;99.90;;;;;;4957913;28;20031;-82
2023/03/18 03:10:32;;;;;;;6.55;2.65;;;10.90;99.90;;;;;;4958266;28;20034;-84
2023/03/18 03:12:58;;;;;;;7.28;3.00;;;10.80;99.90;;;;;;4962298;28;20026;-84
2023/03/18 03:15:25;;;;;;;8.43;3.10;;;10.70;99.90;;;;;;4953771;28;20022;-83
2023/03/18 03:17:52;;;;;;;8.20;2.50;;;10.60;99.90;;;;;;4962665;28;20160;-83
2023/03/18 03:20:21;;;;;;;7.25;2.83;;;10.70;99.90;;;;;;4971969;28;20064;-83
2023/03/18 03:22:46;;;;;;;7.05;2.42;;;10.60;99.90;;;;;;4948952;28;20034;-84
2023/03/18 03:25:13;;;;;;;7.72;3.20;;;10.60;99.90;;;;;;4947125;28;20715;-83
2023/03/18 03:27:38;;;;;;;4.35;2.15;;;10.50;99.90;;;;;;4963514;28;20087;-84
2023/03/18 03:30:06;;;;;;;6.53;2.65;;;10.60;99.90;;;;;;4956609;28;20030;-84
2023/03/18 03:32:32;;;;;;;7.10;2.38;;;10.70;99.90;;;;;;4965002;28;20653;-84
2023/03/18 03:34:57;;;;;;;4.88;2.35;;;10.60;99.90;;;;;;4968374;28;20101;-84
2023/03/18 03:37:23;;;;;;;5.22;2.30;;;10.60;99.90;;;;;;4971959;28;20386;-84
2023/03/18 03:39:49;;;;;;;4.35;2.08;;;10.60;99.90;;;;;;4959152;28;20026;-83
2023/03/18 03:42:16;;;;;;;6.18;2.00;;;10.60;99.90;;;;;;4981627;28;20038;-82
2023/03/18 03:44:42;;;;;;;3.97;2.38;;;10.60;99.90;;;;;;4994436;28;20062;-82
2023/03/18 03:47:07;;;;;;;8.98;2.70;;;10.60;99.90;;;;;;4962747;28;20026;-81
2023/03/18 03:49:33;;;;;;;7.60;2.60;;;10.50;99.90;;;;;;4981274;28;20037;-81
2023/03/18 03:51:59;;;;;;;3.47;2.47;;;10.60;99.90;;;;;;4954371;28;20031;-81
2023/03/18 03:54:24;;;;;;;5.85;2.38;;;10.50;99.90;;;;;;4975168;28;20081;-81
2023/03/18 03:56:50;;;;;;;5.03;2.00;;;10.50;99.90;;;;;;4957469;28;20044;-81
2023/03/18 03:59:16;;;;;;;6.15;2.45;;;10.50;99.90;;;;;;4954568;28;20022;-81
2023/03/18 04:01:43;;;;;;;7.72;2.45;;;10.50;99.90;;;;;;4969534;28;20405;-82
2023/03/18 04:04:09;;;;;;;9.20;2.40;;;10.40;99.90;;;;;;4970527;28;20362;-82
2023/03/18 04:06:35;;;;;;;6.97;3.03;;;10.50;99.90;;;;;;4964811;28;20381;-81
2023/03/18 04:09:02;;;;;;;3.72;2.20;;;10.40;99.90;;;;;;4974775;28;20449;-82
2023/03/18 04:11:28;;;;;;;7.38;2.80;;;10.30;99.90;;;;;;4947466;28;20117;-81
2023/03/18 04:13:54;;;;;;;5.30;2.50;;;10.30;99.90;;;;;;4949286;28;20476;-82
2023/03/18 04:16:20;;;;;;;5.45;2.30;;;10.30;99.90;;;;;;4952565;28;20094;-81
2023/03/18 04:18:45;;;;;;;4.40;2.60;;;10.30;99.90;;;;;;4949087;28;20036;-82
2023/03/18 04:21:11;;;;;;;7.40;2.90;;;10.30;99.90;;;;;;4934334;28;20040;-81
2023/03/18 04:23:36;;;;;;;5.93;2.40;;;10.30;99.90;;;;;;4946733;28;20065;-81
2023/03/18 04:26:04;;;;;;;6.65;2.10;;;10.30;99.90;;;;;;4961300;28;20157;-81
2023/03/18 04:28:32;;;;;;;5.57;3.10;;;10.30;99.90;;;;;;4971128;28;20390;-81
2023/03/18 04:30:58;;;;;;;6.63;2.92;;;10.20;99.90;;;;;;4958169;28;20046;-81
2023/03/18 04:33:24;;;;;;;7.93;2.90;;;10.30;99.90;;;;;;4958338;28;20041;-81
2023/03/18 04:35:49;;;;;;;6.63;3.05;;;10.30;99.90;;;;;;4964121;28;20525;-82
2023/03/18 04:38:15;;;;;;;6.32;3.22;;;10.30;99.90;;;;;;4949159;28;20028;-82
2023/03/18 04:40:41;;;;;;;7.57;3.20;;;10.30;99.90;;;;;;4949538;28;20121;-82
2023/03/18 04:43:08;;;;;;;6.30;3.47;;;10.30;99.90;;;;;;4955143;28;20029;-81
2023/03/18 04:45:37;;;;;;;7.55;4.05;;;10.40;99.90;;;;;;4950794;28;20581;-82
2023/03/18 04:48:03;;;;;;;6.07;3.40;;;10.40;99.90;;;;;;4956318;28;20160;-81
2023/03/18 04:50:28;;;;;;;9.13;3.70;;;10.40;99.90;;;;;;4975576;28;20513;-81
2023/03/18 04:52:54;;;;;;;6.63;3.00;;;10.40;99.90;;;;;;4951147;28;20117;-82
2023/03/18 04:55:27;;;;;;;7.55;4.10;;;10.40;99.90;;;;;;4954605;28;20485;-81
2023/03/18 04:57:53;;;;;;;9.50;3.88;;;10.50;99.90;;;;;;4957124;28;20034;-81
2023/03/18 05:00:22;;;;;;;11.77;4.78;;;10.40;99.90;;;;;;4952230;28;20390;-80
2023/03/18 05:02:48;;;;;;;7.60;4.28;;;10.50;99.90;;;;;;4955535;28;20385;-81
2023/03/18 05:05:13;;;;;;;7.82;3.67;;;10.50;99.90;;;;;;4959770;28;20026;-81
2023/03/18 05:07:40;;;;;;;5.45;3.03;;;10.50;99.90;;;;;;4971922;28;20544;-81
2023/03/18 05:10:14;;;;;;;6.95;3.72;;;10.50;99.90;;;;;;4966839;28;20061;-81
2023/03/18 05:12:40;;;;;;;3.17;2.63;;;10.60;99.90;;;;;;4949529;28;20289;-81
2023/03/18 05:15:06;;;;;;;5.70;3.85;;;10.60;99.90;;;;;;4961134;28;20398;-81
2023/03/18 05:17:32;;;;;;;6.00;2.90;;;10.60;99.90;;;;;;4972438;28;20029;-81
2023/03/18 05:19:58;;;;;;;7.90;3.53;;;10.60;99.90;;;;;;4974866;28;20355;-81
2023/03/18 05:22:24;;;;;;;7.10;3.78;;;10.60;99.90;;;;;;4956654;28;20478;-81
2023/03/18 05:24:49;;;;;;;9.05;3.50;;;10.60;99.90;;;;;;4966835;28;20429;-81
2023/03/18 05:27:16;;;;;;;9.05;3.20;;;10.70;99.90;;;;;;4936383;28;20038;-81
2023/03/18 05:29:42;;;;;;;5.05;3.65;;;10.70;99.90;;;;;;4977777;28;20390;-80
2023/03/18 05:32:08;;;;;;;7.65;3.53;;;10.70;99.90;;;;;;4951028;28;20026;-81
2023/03/18 05:34:36;;;;;;;5.90;3.00;;;10.70;99.90;;;;;;4943676;28;20099;-81
2023/03/18 05:37:05;;;;;;;6.55;3.38;;;10.80;99.90;;;;;;4952490;28;20038;-81
2023/03/18 05:39:31;;;;;;;6.78;3.10;;;10.80;99.90;;;;;;4951036;28;20702;-81
2023/03/18 05:41:58;;;;;;;6.28;2.88;;;10.80;99.90;;;;;;4966302;28;20416;-81
2023/03/18 05:44:24;;;;;;;7.22;3.80;;;10.80;99.90;;;;;;4954465;28;20429;-80
2023/03/18 05:46:51;;;;;;;8.20;3.63;;;10.90;99.90;;;;;;4958244;28;20034;-81
2023/03/18 05:49:17;;;;;;;6.25;3.17;;;10.90;99.90;;;;;;4952199;28;20457;-81
2023/03/18 05:51:43;;;;;;;4.90;3.20;;;11.00;99.90;;;;;;4952221;28;20165;-81
2023/03/18 05:54:09;;;;;;;9.23;4.07;;;11.00;99.90;;;;;;4970972;28;20129;-80
2023/03/18 05:56:35;;;;;;;5.45;2.85;;;11.00;99.90;;;;;;4954638;28;20180;-80
2023/03/18 05:59:00;;;;;;;5.80;3.25;;;11.00;99.90;;;;;;4969180;28;20593;-80
2023/03/18 06:01:26;;;;;;;6.00;3.60;;;11.00;99.90;;;;;;4951279;28;20034;-83
2023/03/18 06:03:54;;;;;;;8.25;3.83;;;11.00;99.90;;;;;;4957776;28;20034;-83
2023/03/18 06:06:19;;;;;;;5.70;3.92;;;11.10;99.90;;;;;;4969133;28;20496;-83
2023/03/18 06:08:45;;;;;;;9.93;4.43;;;11.10;99.90;;;;;;4960472;28;20152;-82
2023/03/18 06:11:11;;;;;;;8.57;3.45;;;11.10;99.90;;;;;;4965335;28;20037;-82
2023/03/18 06:13:37;;;;;;;6.82;4.43;;;11.10;99.90;;;;;;4969608;28;20389;-83
2023/03/18 06:16:03;;;;;;;7.18;4.03;;;11.10;99.90;;;;;;4969818;28;20041;-83
2023/03/18 06:18:29;;;;;;;7.22;4.10;;;11.10;99.90;;;;;;4971199;28;20096;-82
2023/03/18 06:20:55;;;;;;;7.70;3.78;;;11.10;99.90;;;;;;4972791;28;20039;-82
2023/03/18 06:23:21;;;;;;;6.13;3.60;;;11.10;99.90;;;;;;4959596;28;20125;-82
2023/03/18 06:25:48;;;;;;;10.63;4.28;;;11.20;99.90;;;;;;4947344;28;20105;-82
2023/03/18 06:28:14;;;;;;;5.97;4.03;;;11.20;99.90;;;;;;4949357;28;20022;-82
2023/03/18 06:30:40;;;;;;;5.05;3.60;;;11.20;99.90;;;;;;4970321;28;20105;-82
2023/03/18 06:33:05;;;;;;;10.73;4.15;;;11.20;99.90;;;;;;4956850;28;20038;-83
2023/03/18 06:35:31;;;;;;;9.73;4.68;;;11.20;99.90;;;;;;4960751;28;20026;-83
2023/03/18 06:37:57;;;;;;;7.85;4.13;;;11.20;99.90;;;;;;4944342;28;20502;-83
2023/03/18 06:40:23;;;;;;;6.60;3.88;;;11.30;99.90;;;;;;4962240;28;20486;-84
2023/03/18 06:42:49;;;;;;;8.93;6.07;;;11.30;99.90;;;;;;4986857;28;20029;-83
2023/03/18 06:45:15;;;;;;;12.18;3.80;;;11.30;99.90;;;;;;4952328;28;20398;-83
2023/03/18 06:47:41;;;;;;;8.65;4.55;;;11.30;99.90;;;;;;4962754;28;20520;-83
2023/03/18 06:50:08;;;;;;;6.90;3.25;;;11.30;99.90;;;;;;4977691;28;20026;-83
2023/03/18 06:52:42;;;;;;;5.88;4.10;;;11.30;99.90;;;;;;4962738;28;20077;-83
2023/03/18 06:55:09;;;;;;;7.38;3.58;;;11.30;99.90;;;;;;4928394;28;20045;-83
2023/03/18 06:57:34;;;;;;;8.88;3.78;;;11.40;99.90;;;;;;4922421;28;20038;-83
2023/03/18 07:00:00;;;;;;;6.50;3.85;;;11.50;99.90;;;;;;4952571;28;20038;-83
2023/03/18 07:02:26;;;;;;;8.00;3.83;;;11.40;99.90;;;;;;4961193;28;20478;-83
2023/03/18 07:04:52;;;;;;;8.00;5.38;;;11.40;99.90;;;;;;4957948;28;20104;-83
2023/03/18 07:07:18;;;;;;;8.60;4.32;;;11.50;99.90;;;;;;4963501;28;20466;-84
2023/03/18 07:09:43;;;;;;;7.00;4.55;;;11.50;99.90;;;;;;4966519;28;20120;-84
2023/03/18 07:12:12;;;;;;;9.15;4.03;;;11.50;99.90;;;;;;4981189;28;20512;-84
2023/03/18 07:14:38;;;;;;;6.97;5.68;;;11.70;99.90;;;;;;4962917;28;20096;-84
2023/03/18 07:17:04;;;;;;;6.57;3.80;;;11.60;99.90;;;;;;4945297;28;20042;-84
2023/03/18 07:19:36;;;;;;;8.13;5.22;;;11.70;99.90;;;;;;4949236;28;20045;-84
2023/03/18 07:22:02;;;;;;;10.43;4.32;;;11.70;99.90;;;;;;4939085;28;20647;-82
2023/03/18 07:24:29;;;;;;;9.13;3.92;;;11.80;99.90;;;;;;4968090;28;20057;-81
2023/03/18 07:26:54;;;;;;;4.20;3.22;;;11.90;99.90;;;;;;4962355;28;20034;-81
2023/03/18 07:29:20;;;;;;;5.95;3.88;;;11.90;99.90;;;;;;4996624;28;20033;-81
2023/03/18 07:31:45;;;;;;;6.25;3.63;;;11.90;99.90;;;;;;4987053;28;20102;-81
2023/03/18 07:34:12;;;;;;;9.27;3.97;;;12.00;99.90;;;;;;4961600;28;20443;-80
2023/03/18 07:36:38;;;;;;;8.73;3.90;;;12.00;99.90;;;;;;4957785;28;20080;-81
2023/03/18 07:39:07;;;;;;;9.90;4.22;;;12.00;99.90;;;;;;4973237;28;20042;-80
2023/03/18 07:41:32;;;;;;;10.98;4.70;;;12.10;99.90;;;;;;4975777;28;20175;-82
2023/03/18 07:43:58;;;;;;;6.00;4.03;;;12.10;99.90;;;;;;4965198;28;20516;-81
2023/03/18 07:46:29;;;;;;;7.90;4.03;;;12.20;99.90;;;;;;4962161;28;20041;-81
2023/03/18 07:48:55;;;;;;;10.55;3.67;;;12.30;99.90;;;;;;4962841;28;20062;-81
2023/03/18 07:51:23;;;;;;;6.38;3.65;;;12.40;99.90;;;;;;4996231;28;20092;-82
2023/03/18 07:53:50;;;;;;;5.35;3.60;;;12.50;99.90;;;;;;4982362;28;20506;-80
2023/03/18 07:56:16;;;;;;;9.90;4.43;;;12.60;99.90;;;;;;4943085;28;20485;-80
2023/03/18 07:58:44;;;;;;;10.82;3.25;;;12.80;99.90;;;;;;4983583;28;20045;-81
2023/03/18 08:01:11;;;;;;;8.57;4.00;;;12.80;99.90;;;;;;4949243;28;20041;-80
2023/03/18 08:03:36;;;;;;;9.75;3.85;;;13.00;99.90;;;;;;4954981;28;20609;-82
2023/03/18 08:06:03;;;;;;;5.63;3.25;;;13.20;99.90;;;;;;4970759;28;20038;-83
2023/03/18 08:08:29;;;;;;;4.40;2.78;;;13.20;99.90;;;;;;4965491;28;20037;-81
2023/03/18 08:11:01;;;;;;;6.57;2.88;;;13.40;99.90;;;;;;4976042;28;20125;-81
2023/03/18 08:13:27;;;;;;;7.00;2.95;;;13.60;99.90;;;;;;4989828;28;20022;-81
2023/03/18 08:15:53;;;;;;;4.05;2.70;;;13.90;99.90;;;;;;4964484;28;20045;-81
2023/03/18 08:18:20;;;;;;;4.07;2.58;;;13.80;99.90;;;;;;4961067;28;20121;-81
2023/03/18 08:20:45;;;;;;;5.63;3.53;;;13.90;99.90;;;;;;4995177;28;20046;-81
2023/03/18 08:23:11;;;;;;;4.55;2.25;;;14.10;99.90;;;;;;4994715;28;20065;-81
2023/03/18 08:25:38;;;;;;;3.10;1.98;;;14.50;99.90;;;;;;4989729;28;20026;-81
2023/03/18 08:28:06;;;;;;;4.55;2.60;;;14.60;99.90;;;;;;4983822;28;20121;-81
2023/03/18 08:30:32;;;;;;;3.78;2.80;;;14.70;99.90;;;;;;4980058;28;20038;-81
2023/03/18 08:32:58;;;;;;;4.93;3.45;;;14.90;99.90;;;;;;4952544;28;20061;-81
2023/03/18 08:35:23;;;;;;;4.97;2.38;;;14.80;99.90;;;;;;4976095;28;20549;-81
2023/03/18 08:37:50;;;;;;;3.50;2.63;;;14.90;99.90;;;;;;4965930;28;20049;-83
2023/03/18 08:40:16;;;;;;;2.10;1.70;;;14.90;99.90;;;;;;4963529;28;20038;-81
2023/03/18 08:42:42;;;;;;;8.27;2.60;;;15.20;99.90;;;;;;4960760;28;20034;-80
2023/03/18 08:45:08;;;;;;;3.95;2.42;;;15.30;99.90;;;;;;4958480;28;20122;-80
2023/03/18 08:47:34;;;;;;;4.07;2.45;;;15.60;99.90;;;;;;4975899;28;20482;-81
2023/03/18 08:49:59;;;;;;;5.85;3.25;;;15.70;99.90;;;;;;4959745;28;20064;-81
2023/03/18 08:52:25;;;;;;;3.03;2.00;;;16.00;99.90;;;;;;4964804;28;20119;-81
2023/03/18 08:54:50;;;;;;;3.90;2.63;;;16.20;99.90;;;;;;4962438;28;20428;-81
2023/03/18 08:57:16;;;;;;;5.60;3.15;;;16.20;99.90;;;;;;5008168;28;20060;-81
2023/03/18 08:59:42;;;;;;;4.40;2.40;;;16.20;99.90;;;;;;4962212;28;20034;-81
2023/03/18 09:02:13;;;;;;;8.10;3.05;;;16.40;99.90;;;;;;4993791;28;20102;-81
2023/03/18 09:04:39;;;;;;;3.53;2.55;;;16.50;99.90;;;;;;4974669;28;20034;-80
2023/03/18 09:07:06;;;;;;;3.08;2.38;;;16.80;99.90;;;;;;4959939;28;20041;-81
2023/03/18 09:09:32;;;;;;;3.45;2.10;;;17.00;99.90;;;;;;4966430;28;20034;-81
2023/03/18 09:11:57;;;;;;;4.38;2.53;;;17.10;99.90;;;;;;4946433;28;20038;-80
2023/03/18 09:14:23;;;;;;;5.28;2.95;;;17.10;99.90;;;;;;4983768;28;20034;-81
2023/03/18 09:16:48;;;;;;;4.93;3.22;;;17.30;99.90;;;;;;4979199;28;20121;-81
2023/03/18 09:19:14;;;;;;;5.13;2.30;;;17.40;99.90;;;;;;4980099;28;20268;-81
2023/03/18 09:21:39;;;;;;;5.13;3.17;;;17.50;99.90;;;;;;4983788;28;20033;-80
2023/03/18 09:24:05;;;;;;;4.28;2.33;;;17.50;99.90;;;;;;4961386;28;20034;-81
2023/03/18 09:26:31;;;;;;;2.75;1.98;;;17.30;99.90;;;;;;4964727;28;20633;-81
2023/03/18 09:28:56;;;;;;;5.80;2.80;;;17.40;99.90;;;;;;4961802;28;20030;-81
2023/03/18 09:31:22;;;;;;;2.72;2.17;;;17.30;99.90;;;;;;4972226;28;20060;-81
2023/03/18 09:33:48;;;;;;;2.85;2.35;;;17.20;99.90;;;;;;4991179;28;20528;-80
2023/03/18 09:36:14;;;;;;;4.95;2.60;;;17.30;99.90;;;;;;4992308;28;20056;-80
2023/03/18 09:38:41;;;;;;;3.25;2.20;;;17.30;99.90;;;;;;4977362;28;20034;-80
2023/03/18 09:41:32;;;;;;;2.88;2.50;;;17.40;99.90;;;;;;4979843;28;20065;-80
2023/03/18 09:44:22;;;;;;;3.80;2.58;;;17.40;99.90;;;;;;4995806;28;20121;-80
2023/03/18 09:47:15;;;;;;;4.32;2.05;;;17.60;99.90;;;;;;5010123;28;20125;-79
2023/03/18 09:50:15;;;;;;;4.45;2.60;;;17.60;99.90;;;;;;4980283;28;20121;-80
2023/03/18 09:53:22;;;;;;;3.53;2.15;;;17.80;99.90;;;;;;4944850;28;20113;-81
2023/03/18 09:55:51;;;;;;;4.32;2.65;;;17.60;99.90;;;;;;4963728;28;20159;-80
2023/03/18 09:58:30;;;;;;;4.50;2.58;;;17.70;99.90;;;;;;4972519;28;20022;-80
2023/03/18 10:01:00;;;;;;;5.88;2.40;;;17.60;99.90;;;;;;4972980;28;20035;-79
2023/03/18 10:03:42;;;;;;;3.85;2.65;;;17.90;99.90;;;;;;4955471;28;20045;-79
2023/03/18 10:06:19;;;;;;;5.53;3.13;;;17.80;99.90;;;;;;4996005;28;20169;-80
2023/03/18 10:08:48;;;;;;;4.70;2.20;;;18.00;99.90;;;;;;4962621;28;20092;-80
2023/03/18 10:11:21;;;;;;;3.70;2.15;;;17.90;99.90;;;;;;4998336;28;20478;-80
2023/03/18 10:13:57;;;;;;;4.95;2.92;;;18.00;99.90;;;;;;4996322;28;20512;-81
2023/03/18 10:16:26;;;;;;;3.30;2.50;;;18.40;99.90;;;;;;4998995;28;20046;-82
2023/03/18 10:18:51;;;;;;;4.28;2.47;;;18.80;99.90;;;;;;4968618;28;20045;-82
2023/03/18 10:21:55;;;;;;;5.32;2.10;;;18.90;99.90;;;;;;4978729;28;20041;-83
2023/03/18 10:24:21;;;;;;;6.32;2.75;;;18.90;99.90;;;;;;4931112;28;20046;-81
2023/03/18 10:26:51;;;;;;;4.30;1.88;;;18.50;99.90;;;;;;4994422;28;20033;-81
2023/03/18 10:29:27;;;;;;;3.58;2.05;;;18.80;99.90;;;;;;4965397;28;20026;-82
2023/03/18 10:31:52;;;;;;;3.17;1.80;;;19.30;99.90;;;;;;4998382;28;20037;-83
2023/03/18 10:34:23;;;;;;;3.38;1.50;;;19.40;99.90;;;;;;4995024;28;20037;-83
2023/03/18 10:36:56;;;;;;;1.65;1.50;;;19.60;99.90;;;;;;4956175;28;20048;-82
2023/03/18 10:39:23;;;;;;;2.70;1.63;;;20.00;99.90;;;;;;4979577;28;20121;-84
2023/03/18 10:41:50;;;;;;;2.15;1.58;;;20.50;99.90;;;;;;4969682;28;20041;-82
2023/03/18 10:44:31;;;;;;;3.40;1.77;;;20.40;99.90;;;;;;4964049;28;20025;-82
2023/03/18 10:47:26;;;;;;;2.70;1.55;;;20.40;99.90;;;;;;4966217;28;20052;-82
2023/03/18 10:50:03;;;;;;;3.53;1.90;;;20.40;99.90;;;;;;4986793;28;20040;-84
2023/03/18 10:53:24;;;;;;;4.30;2.05;;;20.00;99.90;;;;;;4985576;28;20030;-83
2023/03/18 10:56:07;;;;;;;7.47;2.40;;;19.90;99.90;;;;;;4994089;28;20037;-80
2023/03/18 10:58:33;;;;;;;4.38;2.35;;;19.90;99.90;;;;;;5002621;28;20053;-83
2023/03/18 11:00:59;;;;;;;3.67;2.42;;;20.00;99.90;;;;;;4969643;28;20498;-83
2023/03/18 11:03:45;;;;;;;2.20;1.90;;;20.50;99.90;;;;;;4987392;28;20089;-83
2023/03/18 11:06:20;;;;;;;2.75;2.25;;;21.10;99.90;;;;;;4990386;28;20026;-84
2023/03/18 11:08:47;;;;;;;6.43;1.85;;;20.20;99.90;;;;;;4967194;28;20089;-84
2023/03/18 11:11:24;;;;;;;3.30;1.90;;;20.50;99.90;;;;;;4983000;28;20068;-84
2023/03/18 11:13:52;;;;;;;1.92;1.27;;;21.40;99.90;;;;;;4978612;28;20455;-82
2023/03/18 11:16:24;;;;;;;2.45;1.50;;;21.00;99.90;;;;;;4998964;28;20037;-84
2023/03/18 11:18:51;;;;;;;1.50;1.13;;;20.70;99.90;;;;;;4982419;28;20044;-82
2023/03/18 11:21:17;;;;;;;2.15;1.50;;;21.20;99.90;;;;;;4977275;28;20040;-83
2023/03/18 11:24:06;;;;;;;1.77;1.50;;;21.20;99.90;;;;;;4976110;28;20044;-84
2023/03/18 11:26:41;;;;;;;4.47;1.95;;;20.60;99.90;;;;;;4969920;28;20088;-82
2023/03/18 11:29:12;;;;;;;3.42;1.65;;;20.20;99.90;;;;;;4981281;28;20406;-83
2023/03/18 11:31:59;;;;;;;1.55;1.10;;;21.50;99.90;;;;;;4965461;28;20045;-83
2023/03/18 11:34:25;;;;;;;2.45;1.65;;;22.20;99.90;;;;;;4957820;28;20053;-83
2023/03/18 11:36:54;;;;;;;2.60;1.60;;;21.80;99.90;;;;;;4973773;28;20060;-83
2023/03/18 11:39:22;;;;;;;3.70;1.35;;;21.70;99.90;;;;;;4987965;28;20240;-82
2023/03/18 11:41:48;;;;;;;1.42;1.23;;;20.60;99.90;;;;;;4969570;28;20132;-83
2023/03/18 11:44:16;;;;;;;3.30;1.50;;;22.10;99.90;;;;;;4962178;28;20462;-83
2023/03/18 11:47:03;;;;;;;3.53;1.27;;;22.30;99.90;;;;;;4988470;28;20030;-82
2023/03/18 11:49:30;;;;;;;1.90;1.40;;;22.20;99.90;;;;;;4958914;28;20034;-82
2023/03/18 11:52:30;;;;;;;2.70;0.93;;;23.00;99.90;;;;;;4964213;28;20091;-84
2023/03/18 11:55:17;;;;;;;2.08;1.20;;;23.20;99.90;;;;;;5004744;28;20389;-86
2023/03/18 11:57:54;;;;;;;4.13;1.27;;;23.30;99.50;;;;;;5007330;28;20097;-85
2023/03/18 12:00:20;;;;;;;2.55;1.00;;;23.30;99.40;;;;;;4989361;28;20038;-85
2023/03/18 12:03:23;;;;;;;1.70;1.20;;;23.10;99.90;;;;;;4984951;28;20034;-85
2023/03/18 12:06:19;;;;;;;3.40;0.93;;;23.00;98.50;;;;;;4992206;28;20029;-85
2023/03/18 12:08:48;;;;;;;1.93;1.20;;;23.00;99.50;;;;;;4998330;28;20101;-84
2023/03/18 12:11:31;;;;;;;2.42;1.17;;;22.90;99.90;;;;;;4971100;28;20821;-85
2023/03/18 12:14:15;;;;;;;1.95;1.17;;;23.50;97.70;;;;;;4984828;28;20034;-85
2023/03/18 12:16:42;;;;;;;1.45;1.10;;;23.70;97.40;;;;;;4988012;28;20109;-86
2023/03/18 12:19:19;;;;;;;2.17;1.25;;;24.10;95.40;;;;;;4989385;28;20130;-85
2023/03/18 12:22:05;;;;;;;5.60;1.23;;;23.90;94.70;;;;;;4985542;28;20046;-85
2023/03/18 12:24:51;;;;;;;;;;;23.80;94.70;;;;;;4972571;28;20121;-85
2023/03/18 12:27:22;;;;;;;1.83;1.20;;;23.40;94.00;;;;;;5010482;28;20380;-85
2023/03/18 12:29:54;;;;;;;2.22;1.42;;;23.70;94.80;;;;;;4987903;28;20627;-84
2023/03/18 12:32:34;;;;;;;1.92;1.38;;;23.90;94.00;;;;;;4993160;28;20138;-84
2023/03/18 12:35:26;;;;;;;1.20;0.90;;;23.90;93.50;;;;;;4626147;28;10001205;-85
2023/03/18 12:38:05;;;;;;;2.17;0.88;;;24.00;92.20;;;;;;4608010;28;10000721;-84
2023/03/18 12:40:40;;;;;;;0.68;0.68;;;24.00;93.70;;;;;;4977316;28;20048;-85
2023/03/18 12:43:30;;;;;;;2.47;1.00;;;23.60;93.10;;;;;;4991348;28;20050;-85
2023/03/18 12:45:58;;;;;;;1.30;1.10;;;23.60;90.80;;;;;;4972728;28;20030;-85
2023/03/18 12:48:31;;;;;;;2.03;0.90;;;23.70;92.20;;;;;;4948925;28;20533;-85
2023/03/18 12:51:02;;;;;;;4.35;1.50;;;23.60;93.80;;;;;;4958546;28;20160;-85
2023/03/18 12:53:47;;;;;;;3.63;1.00;;;23.40;93.10;;;;;;4958012;28;20454;-85
2023/03/18 12:56:24;;;;;;;2.92;1.23;;;23.30;91.80;;;;;;4968553;28;20044;-84
2023/03/18 12:59:05;;;;;;;2.17;1.20;;;23.20;90.90;;;;;;4970491;28;20040;-85